Map

Track Data

SID SEASON NUMBER BASIN SUBBASIN NAME ISO_TIME NATURE LAT LON WMO_WIND WMO_PRES WMO_AGENCY TRACK_TYPE DIST2LAND LANDFALL IFLAG USA_AGENCY USA_ATCF_ID USA_LAT USA_LON USA_RECORD USA_STATUS USA_WIND USA_PRES USA_SSHS USA_R34_NE USA_R34_SE USA_R34_SW USA_R34_NW USA_R50_NE USA_R50_SE USA_R50_SW USA_R50_NW USA_R64_NE USA_R64_SE USA_R64_SW USA_R64_NW USA_POCI USA_ROCI USA_RMW USA_EYE TOKYO_LAT TOKYO_LON TOKYO_GRADE TOKYO_WIND TOKYO_PRES TOKYO_R50_DIR TOKYO_R50_LONG TOKYO_R50_SHORT TOKYO_R30_DIR TOKYO_R30_LONG TOKYO_R30_SHORT TOKYO_LAND CMA_LAT CMA_LON CMA_CAT CMA_WIND CMA_PRES HKO_LAT HKO_LON HKO_CAT HKO_WIND HKO_PRES NEWDELHI_LAT NEWDELHI_LON NEWDELHI_GRADE NEWDELHI_WIND NEWDELHI_PRES NEWDELHI_CI NEWDELHI_DP NEWDELHI_POCI REUNION_LAT REUNION_LON REUNION_TYPE REUNION_WIND REUNION_PRES REUNION_TNUM REUNION_CI REUNION_RMW REUNION_R34_NE REUNION_R34_SE REUNION_R34_SW REUNION_R34_NW REUNION_R50_NE REUNION_R50_SE REUNION_R50_SW REUNION_R50_NW REUNION_R64_NE REUNION_R64_SE REUNION_R64_SW REUNION_R64_NW BOM_LAT BOM_LON BOM_TYPE BOM_WIND BOM_PRES BOM_TNUM BOM_CI BOM_RMW BOM_R34_NE BOM_R34_SE BOM_R34_SW BOM_R34_NW BOM_R50_NE BOM_R50_SE BOM_R50_SW BOM_R50_NW BOM_R64_NE BOM_R64_SE BOM_R64_SW BOM_R64_NW BOM_ROCI BOM_POCI BOM_EYE BOM_POS_METHOD BOM_PRES_METHOD NADI_LAT NADI_LON NADI_CAT NADI_WIND NADI_PRES WELLINGTON_LAT WELLINGTON_LON WELLINGTON_WIND WELLINGTON_PRES DS824_LAT DS824_LON DS824_STAGE DS824_WIND DS824_PRES TD9636_LAT TD9636_LON TD9636_STAGE TD9636_WIND TD9636_PRES TD9635_LAT TD9635_LON TD9635_WIND TD9635_PRES TD9635_ROCI NEUMANN_LAT NEUMANN_LON NEUMANN_CLASS NEUMANN_WIND NEUMANN_PRES MLC_LAT MLC_LON MLC_CLASS MLC_WIND MLC_PRES USA_GUST BOM_GUST BOM_GUST_PER REUNION_GUST REUNION_GUST_PER USA_SEAHGT USA_SEARAD_NE USA_SEARAD_SE USA_SEARAD_SW USA_SEARAD_NW STORM_SPEED STORM_DIR
1951363S08065 1952 97 SI MM NOT_NAMED 1951-12-29 06:00:00 NR -8.40000 64.8000 reunion main 1516 1459 _____O________ -1 -8.40000 64.8000 99 9.90000 16 251
1951363S08065 1952 97 SI MM NOT_NAMED 1951-12-29 09:00:00 NR -8.65747 64.0411 main 1444 1390 _____P________ -1 -8.65747 64.0411 99 16 251
1951363S08065 1952 97 SI MM NOT_NAMED 1951-12-29 12:00:00 NR -8.91095 63.2890 main 1390 1339 _____P________ -1 -8.91095 63.2890 99 16 251
1951363S08065 1952 97 SI MM NOT_NAMED 1951-12-29 15:00:00 NR -9.15769 62.5522 main 1328 1279 _____P________ -1 -9.15769 62.5522 99 15 251
1951363S08065 1952 97 SI MM NOT_NAMED 1951-12-29 18:00:00 NR -9.39501 61.8394 main 1276 1233 _____P________ -1 -9.39501 61.8394 99 15 251
1951363S08065 1952 97 SI MM NOT_NAMED 1951-12-29 21:00:00 NR -9.62034 61.1593 main 1233 1194 _____P________ -1 -9.62034 61.1593 99 14 251
1951363S08065 1952 97 SI MM NOT_NAMED 1951-12-30 00:00:00 NR -9.83119 60.5203 main 1191 1151 _____P________ -1 -9.83119 60.5203 99 13 252
1951363S08065 1952 97 SI MM NOT_NAMED 1951-12-30 03:00:00 NR -10.0252 59.9311 main 1140 1130 _____P________ -1 -10.0252 59.9311 99 8 278
1951363S08065 1952 97 SI MM NOT_NAMED 1951-12-30 06:00:00 TS -9.72857 59.7429 reunion main 1131 1100 O____O___OO___ jtwc_sh SH041952 -9.10000 60.2000 -1 -10.2000 59.4000 99 9.90000 -9.10000 60.2000 TC 25 -9.10000 60.2000 7 6 304
1951363S08065 1952 97 SI MM NOT_NAMED 1951-12-30 09:00:00 TS -9.69183 59.4239 main 1100 1069 P____P___PP___ SH041952 -9.25013 59.7476 -1 -10.3543 58.9324 99 -9.25013 59.7476 TC 25 -9.25028 59.7595 7 7 269
1951363S08065 1952 97 SI MM NOT_NAMED 1951-12-30 12:00:00 TS -9.73558 59.0640 main 1069 1024 O____P___OP___ jtwc_sh SH041952 -9.40000 59.3000 -1 -10.4905 58.5217 99 -9.40000 59.3000 TC 25 -9.40024 59.3151 7 7 260
1951363S08065 1952 97 SI MM NOT_NAMED 1951-12-30 15:00:00 TS -9.81539 58.6840 main 1024 979 P____P___PP___ SH041952 -9.54991 58.8574 -1 -10.6116 58.1579 99 -9.54991 58.8574 TC 30 -9.55009 58.8631 7 8 255
1951363S08065 1952 97 SI MM NOT_NAMED 1951-12-30 18:00:00 TS -9.95524 58.2578 main 975 920 O____P___OO___ jtwc_sh SH041952 -9.70000 58.4000 -1 -10.7210 57.8312 99 -9.70000 58.4000 TC 35 -9.70000 58.4000 2 9 252
1951363S08065 1952 97 SI MM NOT_NAMED 1951-12-30 21:00:00 TS -10.0963 57.8073 main 920 875 P____P___PP___ SH041952 -9.85755 57.8850 -1 -10.8215 57.5319 99 -9.85755 57.8850 TC 30 -9.84852 57.9273 2 9 253
1951363S08065 1952 97 SI MM NOT_NAMED 1951-12-31 00:00:00 TS -10.2260 57.3795 main 875 830 O____P___OP___ jtwc_sh SH041952 -10.0000 57.4000 -1 -10.9162 57.2501 99 -10.0000 57.4000 TC 25 -9.98767 57.4677 2 8 253
1951363S08065 1952 97 SI MM NOT_NAMED 1951-12-31 03:00:00 TS -10.3402 57.0051 main 830 796 P____P___PP___ SH041952 -10.1225 56.9975 -1 -11.0081 56.9761 99 -10.1225 56.9975 TC 25 -10.1080 57.0492 2 7 253
1951363S08065 1952 97 SI MM NOT_NAMED 1951-12-31 06:00:00 TS -10.4250 56.7000 reunion main 796 771 O____O___OO___ jtwc_sh SH041952 -10.2000 56.7000 -1 -11.1000 56.7000 99 9.90000 -10.2000 56.7000 TC 25 -10.2000 56.7000 1 5 256
1951363S08065 1952 97 SI MM NOT_NAMED 1951-12-31 09:00:00 TS -10.4682 56.4710 main 771 751 P____P___PP___ SH041952 -10.2074 56.5275 -1 -11.2044 56.3761 99 -10.2074 56.5275 TC 25 -10.2534 56.4529 1 4 260
1951363S08065 1952 97 SI MM NOT_NAMED 1951-12-31 12:00:00 TS -10.4966 56.2828 main 751 731 O____P___OP___ jtwc_sh SH041952 -10.2000 56.4000 -1 -11.3067 56.0563 99 -10.2000 56.4000 TC 25 -10.2796 56.2748 1 4 258
1951363S08065 1952 97 SI MM NOT_NAMED 1951-12-31 15:00:00 TS -10.5496 56.0686 main 731 706 P____P___PP___ SH041952 -10.2500 56.2000 -1 -11.4074 55.7400 99 -10.2500 56.2000 TC 25 -10.2910 56.1343 1 4 256
1951363S08065 1952 97 SI MM NOT_NAMED 1951-12-31 18:00:00 TS -10.6017 55.8568 main 706 686 O____P___OO___ jtwc_sh SH041952 -10.3000 56.0000 -1 -11.5069 55.4271 99 -10.3000 56.0000 TC 25 -10.3000 56.0000 1 4 259
1951363S08065 1952 97 SI MM NOT_NAMED 1951-12-31 21:00:00 TS -10.6295 55.6645 main 686 661 P____P___PP___ SH041952 -10.3000 55.8500 -1 -11.6055 55.1170 99 -10.3000 55.8500 TC 25 -10.3127 55.8412 1 4 262
1951363S08065 1952 97 SI MM NOT_NAMED 1952-01-01 00:00:00 TS -10.6577 55.4723 main 661 641 O____P___OP___ jtwc_sh SH041952 -10.3000 55.7000 -1 -11.7036 54.8094 99 -10.3000 55.7000 TC 25 -10.3273 55.6799 1 4 259
1951363S08065 1952 97 SI MM NOT_NAMED 1952-01-01 03:00:00 TS -10.7062 55.2594 main 641 607 P____P___PP___ SH041952 -10.3350 55.5150 -1 -11.8017 54.5038 99 -10.3350 55.5150 TC 25 -10.3533 55.5036 1 5 255
1951363S08065 1952 97 SI MM NOT_NAMED 1952-01-01 06:00:00 TS -10.7750 55.0250 reunion main 607 582 O____O___OO___ jtwc_sh SH041952 -10.4000 55.3000 -1 -11.9000 54.2000 99 9.90000 -10.4000 55.3000 TC 25 -10.4000 55.3000 1 5 252
1951363S08065 1952 97 SI MM NOT_NAMED 1952-01-01 09:00:00 TS -10.8658 54.7682 main 582 548 P____P___PP___ SH041952 -10.4925 55.0650 -1 -11.9997 53.8971 99 -10.4925 55.0650 TC 25 -10.4785 55.0457 1 6 250
1951363S08065 1952 97 SI MM NOT_NAMED 1952-01-01 12:00:00 TS -10.9693 54.4904 main 548 513 O____P___OP___ jtwc_sh SH041952 -10.6000 54.8000 -1 -12.0995 53.5966 99 -10.6000 54.8000 TC 25 -10.5776 54.7651 1 6 250
1951363S08065 1952 97 SI MM NOT_NAMED 1952-01-01 15:00:00 TS -11.0718 54.1899 main 513 479 P____P___PP___ SH041952 -10.7000 54.4925 -1 -12.1993 53.2977 99 -10.7000 54.4925 TC 25 -10.6879 54.4769 1 6 250
1951363S08065 1952 97 SI MM NOT_NAMED 1952-01-01 18:00:00 TS -11.1748 53.8999 main 479 455 O____P___OO___ jtwc_sh SH041952 -10.8000 54.2000 -1 -12.2993 52.9996 99 -10.8000 54.2000 TC 25 -10.8000 54.2000 1 6 248
1951363S08065 1952 97 SI MM NOT_NAMED 1952-01-01 21:00:00 TS -11.2758 53.6638 main 455 430 P____P___PP___ SH041952 -10.8999 53.9925 -1 -12.3993 52.7015 99 -10.8999 53.9925 TC 25 -10.9039 53.9687 1 5 246
1951363S08065 1952 97 SI MM NOT_NAMED 1952-01-02 00:00:00 TS -11.3767 53.4382 main 420 396 O____P___OP___ jtwc_sh SH041952 -11.0000 53.8000 -1 -12.4995 52.4028 99 -11.0000 53.8000 TC 25 -11.0073 53.7499 1 5 247
1951363S08065 1952 97 SI MM NOT_NAMED 1952-01-02 03:00:00 TS -11.4767 53.1872 main 396 361 P____P___PP___ SH041952 -11.1000 53.5575 -1 -12.5997 52.1025 99 -11.1000 53.5575 TC 25 -11.1070 53.5312 1 5 248
1951363S08065 1952 97 SI MM NOT_NAMED 1952-01-02 06:00:00 TS -11.5750 52.9250 reunion main 361 337 O____O___OO___ jtwc_sh SH041952 -11.2000 53.3000 -1 -12.7000 51.8000 99 9.90000 -11.2000 53.3000 TC 25 -11.2000 53.3000 1 5 249
1951363S08065 1952 97 SI MM NOT_NAMED 1952-01-02 09:00:00 TS -11.6677 52.6710 main 337 308 P____P___PP___ SH041952 -11.3075 53.0575 -1 -12.7819 51.5256 99 -11.3075 53.0575 TC 25 -11.2740 53.0433 1 5 251
1951363S08065 1952 97 SI MM NOT_NAMED 1952-01-02 12:00:00 TS -11.7510 52.4064 main 303 274 O____P___OP___ jtwc_sh SH041952 -11.4000 52.8000 -1 -12.8616 51.2533 99 -11.4000 52.8000 TC 25 -11.3424 52.7723 1 6 255
1951363S08065 1952 97 SI MM NOT_NAMED 1952-01-02 15:00:00 TS -11.8144 52.1167 main 274 240 P____P___PP___ SH041952 -11.4500 52.5000 -1 -12.9430 50.9766 99 -11.4500 52.5000 TC 25 -11.4146 52.4902 1 6 257
1951363S08065 1952 97 SI MM NOT_NAMED 1952-01-02 18:00:00 TS -11.8824 51.8223 main 240 215 O____P___OO___ jtwc_sh SH041952 -11.5000 52.2000 -1 -13.0296 50.6892 99 -11.5000 52.2000 TC 25 -11.5000 52.2000 1 6 254
1951363S08065 1952 97 SI MM NOT_NAMED 1952-01-02 21:00:00 TS -11.9722 51.5647 main 215 182 P____P___PP___ SH041952 -11.5849 51.9575 -1 -13.1251 50.3844 99 -11.5849 51.9575 TC 25 -11.5938 51.9595 1 6 249
1951363S08065 1952 97 SI MM NOT_NAMED 1952-01-03 00:00:00 TS -12.0842 51.2900 main 182 149 O____P___OP___ jtwc_sh SH041952 -11.7000 51.7000 -1 -13.2329 50.0557 99 -11.7000 51.7000 TC 25 -11.7041 51.7042 1 6 247
1951363S08065 1952 97 SI MM NOT_NAMED 1952-01-03 03:00:00 TS -12.2160 50.9708 main 149 101 P____P___PP___ SH041952 -11.8349 51.3949 -1 -13.3567 49.6965 99 -11.8349 51.3949 TC 25 -11.8373 51.3969 1 8 247
1951363S08065 1952 97 SI MM NOT_NAMED 1952-01-03 06:00:00 TS -12.3750 50.5750 reunion main 101 54 O____O___OO___ jtwc_sh SH041952 -12.0000 51.0000 -1 -13.5000 49.3000 99 9.90000 -12.0000 51.0000 TC 25 -12.0000 51.0000 1 9 249
1951363S08065 1952 97 SI MM NOT_NAMED 1952-01-03 09:00:00 TS -12.5546 50.0772 main 46 0 P____P___PP___ SH041952 -12.1849 50.5024 -1 -13.6604 48.8237 99 -12.1849 50.5024 TC 25 -12.1883 50.4805 1 11 250
1951363S08065 1952 97 SI MM NOT_NAMED 1952-01-03 12:00:00 TS -12.7609 49.4940 main 0 0 O____P___OP___ jtwc_sh SH041952 -12.4000 49.9000 -1 -13.8383 48.3063 99 -12.4000 49.9000 TC 25 -12.4052 49.8697 1 13 250
1951363S08065 1952 97 SI MM NOT_NAMED 1952-01-03 15:00:00 TS -12.9904 48.8547 main 0 0 P____P___PP___ SH041952 -12.6424 49.2299 -1 -14.0323 47.7598 99 -12.6424 49.2299 TC 25 -12.6444 49.1990 1 14 250
1951363S08065 1952 97 SI MM NOT_NAMED 1952-01-03 18:00:00 TS -13.2353 48.1739 main 46 31 O____P___OO___ jtwc_sh SH041952 -12.9000 48.5000 -1 -14.2410 47.1956 99 -12.9000 48.5000 TC 25 -12.9000 48.5000 1 14 250
1951363S08065 1952 97 SI MM NOT_NAMED 1952-01-03 21:00:00 TS -13.4784 47.4699 main 48 48 P____P___PP___ SH041952 -13.1425 47.7424 -1 -14.4632 46.6258 99 -13.1425 47.7424 TC 25 -13.1653 47.7692 1 15 250
1951363S08065 1952 97 SI MM NOT_NAMED 1952-01-04 00:00:00 TS -13.7353 46.7719 main 118 118 O____P___OP___ jtwc_sh SH041952 -13.4000 47.0000 -1 -14.6978 46.0620 99 -13.4000 47.0000 TC 25 -13.4434 47.0257 1 14 248
1951363S08065 1952 97 SI MM NOT_NAMED 1952-01-04 03:00:00 TS -14.0171 46.1076 main 163 159 P____P___PP___ SH041952 -13.7000 46.2976 -1 -14.9437 45.5161 99 -13.7000 46.2976 TC 25 -13.7248 46.3192 1 13 245
1951363S08065 1952 97 SI MM NOT_NAMED 1952-01-04 06:00:00 TS -14.3000 45.5250 reunion main 170 162 O____O___OO___ jtwc_sh SH041952 -14.0000 45.7000 -1 -15.2000 45.0000 99 9.90000 -14.0000 45.7000 TC 25 -14.0000 45.7000 1 12 242
1951363S08065 1952 97 SI MM NOT_NAMED 1952-01-04 09:00:00 TS -14.5481 45.0580 main 165 141 P____P___PP___ SH041952 -14.2572 45.2548 -1 -15.4382 44.4998 99 -14.2572 45.2548 TC 25 -14.2398 45.2226 1 10 240
1951363S08065 1952 97 SI MM NOT_NAMED 1952-01-04 12:00:00 TS -14.7907 44.6636 main 141 134 O____P___OP___ jtwc_sh SH041952 -14.5000 44.9000 -1 -15.6868 44.0181 99 -14.5000 44.9000 TC 25 -14.4762 44.8364 1 9 237
1951363S08065 1952 97 SI MM NOT_NAMED 1952-01-04 15:00:00 TS -15.0392 44.2884 main 141 119 P____P___PP___ SH041952 -14.7424 44.5424 -1 -15.9476 43.5617 99 -14.7424 44.5424 TC 25 -14.7245 44.5070 1 9 234
1951363S08065 1952 97 SI MM NOT_NAMED 1952-01-04 18:00:00 TS -15.3056 43.9343 main 124 114 O____P___OO___ jtwc_sh SH041952 -15.0000 44.2000 -1 -16.2224 43.1374 99 -15.0000 44.2000 TC 25 -15.0000 44.2000 1 9 231
1951363S08065 1952 97 SI MM NOT_NAMED 1952-01-04 21:00:00 TS -15.5953 43.5683 main 116 116 P____P___PP___ SH041952 -15.2775 43.8424 -1 -16.5132 42.7520 99 -15.2775 43.8424 TC 25 -15.3131 43.8363 1 9 228
1951363S08065 1952 97 SI MM NOT_NAMED 1952-01-05 00:00:00 TS -15.9192 43.2257 main 135 132 O____P___OP___ jtwc_sh SH041952 -15.6000 43.5000 -1 -16.8217 42.4127 99 -15.6000 43.5000 TC 25 -15.6550 43.4901 1 9 222
1951363S08065 1952 97 SI MM NOT_NAMED 1952-01-05 03:00:00 TS -16.2849 42.9138 main 160 155 P____P___PP___ SH041952 -15.9850 43.1775 -1 -17.1500 42.1263 99 -15.9850 43.1775 TC 25 -16.0194 43.1738 1 9 216
1951363S08065 1952 97 SI MM NOT_NAMED 1952-01-05 06:00:00 TS -16.6750 42.6500 reunion main 155 155 O____O___OO___ jtwc_sh SH041952 -16.4000 42.9000 -1 -17.5000 41.9000 99 9.90000 -16.4000 42.9000 TC 25 -16.4000 42.9000 1 9 210
1951363S08065 1952 97 SI MM NOT_NAMED 1952-01-05 09:00:00 TS -17.0726 42.4308 main 165 162 P____P___PP___ SH041952 -16.7999 42.6774 -1 -17.9011 41.7110 99 -16.7999 42.6774 TC 25 -16.7895 42.6574 1 9 205
1951363S08065 1952 97 SI MM NOT_NAMED 1952-01-05 12:00:00 TS -17.4804 42.2602 main 169 169 O____P___OP___ jtwc_sh SH041952 -17.2000 42.5000 -1 -18.3294 41.5810 99 -17.2000 42.5000 TC 25 -17.1923 42.4599 1 9 200
1951363S08065 1952 97 SI MM NOT_NAMED 1952-01-05 15:00:00 TS -17.8972 42.1208 main 195 195 P____P___PP___ SH041952 -17.6075 42.3350 -1 -18.7747 41.5059 99 -17.6075 42.3350 TC 25 -17.5989 42.3075 1 9 195
1951363S08065 1952 97 SI MM NOT_NAMED 1952-01-05 18:00:00 TS -18.3067 42.0203 main 211 211 O____P___OO___ jtwc_sh SH041952 -18.0000 42.2000 -1 -19.2269 41.4811 99 -18.0000 42.2000 TC 25 -18.0000 42.2000 1 8 193
1951363S08065 1952 97 SI MM NOT_NAMED 1952-01-05 21:00:00 TS -18.6895 41.9345 main 223 223 P____P___PP___ SH041952 -18.3500 42.0700 -1 -19.6759 41.5026 99 -18.3500 42.0700 TC 25 -18.3820 42.0954 1 8 188
1951363S08065 1952 97 SI MM NOT_NAMED 1952-01-06 00:00:00 TS -19.0671 41.9009 main 234 234 O____P___OP___ jtwc_sh SH041952 -18.7000 42.0000 -1 -20.1112 41.5658 99 -18.7000 42.0000 TC 25 -18.7572 42.0378 1 8 0
1951363S08065 1952 97 SI MM NOT_NAMED 1952-01-06 03:00:00 TS -19.4629 41.9282 main 245 227 P____P___PP___ SH041952 -19.1000 42.0050 -1 -20.5227 41.6665 99 -19.1000 42.0050 TC 25 -19.1289 42.0363 1 8 171
1951363S08065 1952 97 SI MM NOT_NAMED 1952-01-06 06:00:00 TS -19.8500 42.0250 reunion main 227 189 O____O___OO___ jtwc_sh SH041952 -19.5000 42.1000 -1 -20.9000 41.8000 99 9.90000 -19.5000 42.1000 TC 25 -19.5000 42.1000 1 8 163
1951363S08065 1952 97 SI MM NOT_NAMED 1952-01-06 09:00:00 TS -20.1928 42.1699 main 189 152 P____P___PP___ SH041952 -19.8500 42.2775 -1 -21.1797 41.8981 99 -19.8500 42.2775 TC 25 -19.8913 42.2267 1 8 155
1951363S08065 1952 97 SI MM NOT_NAMED 1952-01-06 12:00:00 TS -20.5261 42.3622 main 152 108 O____P___OP___ jtwc_sh SH041952 -20.2000 42.5000 -1 -21.4244 42.0318 99 -20.2000 42.5000 TC 25 -20.2801 42.4169 1 8 152
1951363S08065 1952 97 SI MM NOT_NAMED 1952-01-06 15:00:00 TS -20.8823 42.5625 main 108 75 P____P___PP___ SH041952 -20.6150 42.7000 -1 -21.6456 42.2013 99 -20.6150 42.7000 TC 25 -20.6538 42.6487 1 8 151
1951363S08065 1952 97 SI MM NOT_NAMED 1952-01-06 18:00:00 TS -21.2137 42.7767 main 75 51 O____P___OO___ jtwc_sh SH041952 -21.0000 42.9000 -1 -21.8548 42.4069 99 -21.0000 42.9000 TC 25 -21.0000 42.9000 1 7 146
1951363S08065 1952 97 SI MM NOT_NAMED 1952-01-06 21:00:00 TS -21.4660 42.9800 main 51 23 P____P___PP___ SH041952 -21.2649 43.0853 -1 -22.0634 42.6491 99 -21.2649 43.0853 TC 25 -21.2708 43.1006 1 6 140
1951363S08065 1952 97 SI MM NOT_NAMED 1952-01-07 00:00:00 TS -21.7005 43.2120 main 23 0 O____P___OP___ jtwc_sh SH041952 -21.5000 43.3000 -1 -22.2829 42.9282 99 -21.5000 43.3000 TC 25 -21.5192 43.3199 1 7 136
1951363S08065 1952 97 SI MM NOT_NAMED 1952-01-07 03:00:00 TS -21.9619 43.4874 main 0 0 P____P___PP___ SH041952 -21.7699 43.5629 -1 -22.5246 43.2449 99 -21.7699 43.5629 TC 25 -21.7831 43.5792 1 8 135
1951363S08065 1952 97 SI MM NOT_NAMED 1952-01-07 06:00:00 TS -22.2750 43.8250 reunion main 0 0 O____O___OO___ jtwc_sh SH041952 -22.1000 43.9000 -1 -22.8000 43.6000 99 9.90000 -22.1000 43.9000 TC 25 -22.1000 43.9000 1 10 136
1951363S08065 1952 97 SI MM NOT_NAMED 1952-01-07 09:00:00 TS -22.6896 44.2437 main 0 0 P____P___PP___ SH041952 -22.5200 44.3201 -1 -23.1841 44.0174 99 -22.5200 44.3201 TC 25 -22.5343 44.3172 1 12 137
1951363S08065 1952 97 SI MM NOT_NAMED 1952-01-07 12:00:00 TS -23.1557 44.7198 main 0 0 O____P___OP___ jtwc_sh SH041952 -23.0000 44.8000 -1 -23.6019 44.4836 99 -23.0000 44.8000 TC 25 -23.0208 44.7958 1 13 137
1951363S08065 1952 97 SI MM NOT_NAMED 1952-01-07 15:00:00 TS -23.6480 45.2253 main 0 0 P____P___PP___ SH041952 -23.5150 45.3073 -1 -24.0403 44.9847 99 -23.5150 45.3073 TC 25 -23.5218 45.3017 1 13 136
1951363S08065 1952 97 SI MM NOT_NAMED 1952-01-07 18:00:00 TS -24.1217 45.7266 main 0 0 O____P___OO___ jtwc_sh SH041952 -24.0000 45.8000 -1 -24.4867 45.5064 99 -24.0000 45.8000 TC 25 -24.0000 45.8000 1 12 135
1951363S08065 1952 97 SI MM NOT_NAMED 1952-01-07 21:00:00 TS -24.5101 46.1700 main 0 0 P____P___PP___ SH041952 -24.3647 46.2082 -1 -24.9282 46.0340 99 -24.3647 46.2082 TC 25 -24.3826 46.2295 1 11 133
1951363S08065 1952 97 SI MM NOT_NAMED 1952-01-08 00:00:00 TS -24.8734 46.5996 main 0 0 O____P___OP___ jtwc_sh SH041952 -24.7000 46.6000 -1 -25.3524 46.5526 99 -24.7000 46.6000 TC 25 -24.7414 46.6457 1 11 133
1951363S08065 1952 97 SI MM NOT_NAMED 1952-01-08 03:00:00 TS -25.2515 47.0453 main 22 22 P____P___PP___ SH041952 -25.0774 47.0354 -1 -25.7470 47.0465 99 -25.0774 47.0354 TC 25 -25.1045 47.0640 1 11 134
1951363S08065 1952 97 SI MM NOT_NAMED 1952-01-08 06:00:00 TS -25.6500 47.5000 reunion main 75 75 O____O___OO___ jtwc_sh SH041952 -25.5000 47.5000 -1 -26.1000 47.5000 99 9.90000 -25.5000 47.5000 TC 25 -25.5000 47.5000 1 12 135
1951363S08065 1952 97 SI MM NOT_NAMED 1952-01-08 09:00:00 TS -26.0862 47.9671 main 150 150 P____P___PP___ SH041952 -25.9849 47.9927 -1 -26.4027 47.9008 99 -25.9849 47.9927 TC 25 -25.9721 47.9823 1 12 137
1951363S08065 1952 97 SI MM NOT_NAMED 1952-01-08 12:00:00 TS -26.5341 48.4341 main 209 209 O____P___OP___ jtwc_sh SH041952 -26.5000 48.5000 -1 -26.6591 48.2517 99 -26.5000 48.5000 TC 25 -26.4774 48.4848 1 12 137
1951363S08065 1952 97 SI MM NOT_NAMED 1952-01-08 15:00:00 TS -26.9711 48.8888 main 284 284 P____P___PP___ SH041952 -27.0073 49.0003 -1 -26.8759 48.5594 99 -27.0073 49.0003 TC 25 -26.9940 48.9950 1 12 137
1951363S08065 1952 97 SI MM NOT_NAMED 1952-01-08 18:00:00 TS -27.3900 49.3328 main 344 344 O____P___OO___ jtwc_sh SH041952 -27.5000 49.5000 -1 -27.0599 48.8310 99 -27.5000 49.5000 TC 25 -27.5000 49.5000 7 11 136
1951363S08065 1952 97 SI MM NOT_NAMED 1952-01-08 21:00:00 TS -27.7778 49.7697 main 410 410 P____P___PP___ SH041952 -27.9574 50.0079 -1 -27.2178 49.0736 99 -27.9574 50.0079 TC 25 -27.9788 49.9894 7 11 135
1951363S08065 1952 97 SI MM NOT_NAMED 1952-01-09 00:00:00 TS -28.1474 50.1900 main 461 461 O____P___OP___ jtwc_sh SH041952 -28.4000 50.5000 -1 -27.3561 49.2944 99 -28.4000 50.5000 TC 25 -28.4333 50.4655 7 10 135
1951363S08065 1952 97 SI MM NOT_NAMED 1952-01-09 03:00:00 TS -28.5120 50.5882 main 521 521 P____P___PP___ SH041952 -28.8477 50.9592 -1 -27.4814 49.5007 99 -28.8477 50.9592 TC 25 -28.8712 50.9338 7 10 137
1951363S08065 1952 97 SI MM NOT_NAMED 1952-01-09 06:00:00 TS -28.8750 50.9750 reunion main 580 O____O___OO___ jtwc_sh SH041952 -29.3000 51.4000 -1 -27.6000 49.7000 99 9.90000 -29.3000 51.4000 TC 25 -29.3000 51.4000 7 10 137

About IBTrACS Database

This database is a web-friendly format of International Best Track Archive for Climate Stewardship (IBTrACS), a global best track data archive curated by NOAA dating back to 1842.

Updated: 2021-10-21